Flight Track Log - Related Links

Times and Time Zones

All times are in EDT time to prevent confusion due to time zone crossing. See the N8354C flight status page for this flight to view local times or setup timezone preferences in your user account.

Time Position Orientation Groundspeed Altitude Reporting Facility
EDT Latitude Longitude Course Direction KTS MPH feet Rate Location/Type
02:23PM 34.0979 -96.9814 175° South  Level FlightAware Approximate
02:24PM 34.0688 -96.9783 175° South  Level FlightAware Approximate
02:25PM 34.0397 -96.9752 175° South  Level FlightAware Approximate
02:25PM 34.0944 -96.9939 174° South 99 114 4,600  Level Fort Worth Center
02:26PM 34.0107 -96.9722 175° South  Level FlightAware Approximate
02:26PM 34.0681 -96.9894 172° South 99 114 5,000  Level Fort Worth Center
02:27PM 33.9816 -96.9691 175° South  Level FlightAware Approximate
02:27PM 34.0439 -96.9872 176° South 99 114 5,200  Level Fort Worth Center
02:28PM 33.9525 -96.9660 175° South  Level FlightAware Approximate
02:28PM 34.0108 -96.9847 176° South 100 115 5,500  Level Fort Worth Center
02:29PM 33.9234 -96.9630 175° South  Level FlightAware Approximate
02:30PM 33.8943 -96.9599 175° South  Level FlightAware Approximate
02:30PM 33.9786 -96.9836 178° South 107 123 5,500  Level Fort Worth Center
02:31PM 33.9461 -96.9761 169° South 114 131 5,500  Level Fort Worth Center
02:32PM 33.9089 -96.9708 173° South 114 131 5,500 48 Level Fort Worth Center
02:33PM 33.8778 -96.9664 173° South 114 131 5,600 48 Climbing Fort Worth Center
02:34PM 33.8508 -96.9597 168° South 113 130 5,600  Level Fort Worth Center
02:35PM 33.8183 -96.9564 175° South 113 130 5,600  Level Fort Worth Center
02:36PM 33.7839 -96.9411 160° South 113 130 5,600  Level Fort Worth Center
02:37PM 33.7553 -96.9239 153° Southeast 113 130 5,600  Level Fort Worth Center
02:38PM 33.7278 -96.9075 154° Southeast 112 129 5,600 -96 Level Fort Worth Center
02:39PM 33.7031 -96.8917 152° Southeast 110 127 5,400 -190 Descending Fort Worth Center
02:41PM 33.6579 -96.8638 153° Southeast  Level FlightAware Approximate
02:48PM 33.4690 -96.7512 157° South  Level FlightAware Approximate
02:49PM 33.4412 -96.7372 157° South  Level FlightAware Approximate
02:50PM 33.4133 -96.7233 157° South  Level FlightAware Approximate
02:51PM 33.3855 -96.7094 157° South  Level FlightAware Approximate
02:52PM 33.3592 -96.6926 140° Southeast  Level FlightAware Approximate
02:53PM 33.3361 -96.6694 140° Southeast  Level FlightAware Approximate
02:54PM 33.3088 -96.6544 157° South  Level FlightAware Approximate
02:55PM 33.2805 -96.6422 161° South  Level FlightAware Approximate
02:56PM 33.2519 -96.6307 162° South  Level FlightAware Approximate
02:57PM 33.2233 -96.6193 162° South  Level FlightAware Approximate
02:58PM 33.1964 -96.6032 151° Southeast  Level FlightAware Approximate
02:59PM 33.1771 -96.5888 151° Southeast  Level Estimated
03:00PM 33.1771 -96.5888 156° South  Level Estimated
03:01PM 33.1771 -96.5888 151° Southeast  Level Estimated
03:02PM 33.1771 -96.5888 156° South  Level Estimated
03:03PM 33.1771 -96.5888 151° Southeast  Level Estimated
03:04PM 33.1771 -96.5888 156° South  Level Estimated
03:05PM 33.1771 -96.5888 151° Southeast  Level Estimated
03:06PM 33.1771 -96.5888 156° South  Level Estimated
03:07PM 33.1771 -96.5888 151° Southeast  Level Estimated
03:08PM 33.1771 -96.5888 156° South  Level Estimated
03:09PM 33.1771 -96.5888 151° Southeast  Level Estimated
03:10PM 33.1771 -96.5888 156° South  Level Estimated
03:11PM 33.1771 -96.5888 151° Southeast  Level Estimated
03:12PM 33.1771 -96.5888 156° South  Level Estimated

Login

Don't have an account? Register now (free) for customized features, flight alerts, and more!